createdAt,value
2019-02-17T00:02:00.253Z,58.00
2019-02-17T00:04:30.204Z,58.10
2019-02-17T00:07:00.683Z,59.10
2019-02-17T00:09:30.575Z,58.90
2019-02-17T00:12:01.240Z,59.50
2019-02-17T00:14:33.751Z,59.40
2019-02-17T00:17:03.589Z,59.70
2019-02-17T00:19:34.515Z,59.50
2019-02-17T00:22:05.168Z,59.40
2019-02-17T00:24:36.005Z,58.90
2019-02-17T00:27:06.237Z,59.50
2019-02-17T00:29:36.573Z,59.50
2019-02-17T00:32:06.351Z,59.60
2019-02-17T00:34:36.821Z,59.80
2019-02-17T00:37:07.323Z,60.70
2019-02-17T00:39:41.530Z,60.80
2019-02-17T00:42:12.499Z,61.00
2019-02-17T00:44:44.621Z,60.90
2019-02-17T00:47:16.547Z,61.50
2019-02-17T00:49:48.503Z,61.70
2019-02-17T00:52:18.677Z,62.10
2019-02-17T00:54:49.064Z,61.90
2019-02-17T00:57:19.375Z,62.30
2019-02-17T00:59:49.720Z,62.30
2019-02-17T01:02:20.007Z,62.60
2019-02-17T01:04:50.139Z,63.20
2019-02-17T01:07:21.547Z,63.10
2019-02-17T01:15:02.340Z,63.40
2019-02-17T01:20:10.944Z,63.80
2019-02-17T01:22:40.572Z,64.00
2019-02-17T01:25:11.168Z,63.50
2019-02-17T01:27:41.542Z,63.80
2019-02-17T01:30:14.188Z,64.60
2019-02-17T01:32:44.435Z,64.40
2019-02-17T01:35:14.098Z,64.70
2019-02-17T01:37:44.423Z,64.50
2019-02-17T01:40:14.961Z,65.30
2019-02-17T01:42:46.049Z,65.30
2019-02-17T01:45:16.398Z,65.80
2019-02-17T01:47:46.088Z,66.00
2019-02-17T01:50:15.888Z,66.50
2019-02-17T01:52:45.610Z,66.40
2019-02-17T01:55:15.349Z,67.00
2019-02-17T01:57:45.004Z,67.10
2019-02-17T02:00:15.438Z,67.30
2019-02-17T02:02:44.975Z,67.50
2019-02-17T02:07:50.532Z,67.90
2019-02-17T02:10:20.156Z,68.10
2019-02-17T02:12:49.863Z,67.80
2019-02-17T02:15:19.576Z,67.90
2019-02-17T02:17:49.155Z,67.90
2019-02-17T02:20:19.865Z,67.80
2019-02-17T02:22:49.744Z,67.90
2019-02-17T02:25:20.409Z,67.50
2019-02-17T02:27:50.045Z,67.90
2019-02-17T02:30:19.700Z,67.40
2019-02-17T02:32:49.262Z,67.90
2019-02-17T02:35:18.950Z,67.90
2019-02-17T02:37:48.501Z,68.10
2019-02-17T02:40:18.155Z,68.00
2019-02-17T02:42:47.686Z,68.00
2019-02-17T02:45:17.280Z,67.60
2019-02-17T02:50:21.662Z,67.50
2019-02-17T02:52:51.610Z,67.50
2019-02-17T02:55:21.150Z,67.70
2019-02-17T02:57:50.803Z,67.80
2019-02-17T03:00:20.374Z,68.10
2019-02-17T03:02:50.048Z,68.00
2019-02-17T03:05:19.560Z,67.90
2019-02-17T03:07:49.146Z,67.40
2019-02-17T03:10:18.770Z,67.50
2019-02-17T03:12:48.364Z,67.40
2019-02-17T03:15:18.440Z,67.30
2019-02-17T03:17:48.085Z,67.10
2019-02-17T03:20:17.664Z,67.60
2019-02-17T03:22:47.263Z,67.50
2019-02-17T03:25:17.023Z,67.30
2019-02-17T03:27:46.575Z,67.30
2019-02-17T03:30:16.209Z,67.00
2019-02-17T03:32:45.817Z,66.90
2019-02-17T03:35:15.423Z,66.50
2019-02-17T03:37:45.028Z,66.70
2019-02-17T03:40:14.743Z,66.70
2019-02-17T03:42:44.261Z,66.60
2019-02-17T03:45:13.864Z,66.70
2019-02-17T03:47:43.423Z,66.20
2019-02-17T03:50:13.012Z,66.20
2019-02-17T03:52:42.682Z,66.10
2019-02-17T03:55:12.348Z,65.80
2019-02-17T03:57:41.995Z,66.10
2019-02-17T04:00:17.113Z,66.20
2019-02-17T04:02:42.951Z,66.40
2019-02-17T04:05:13.624Z,66.20
2019-02-17T04:07:43.188Z,65.90
2019-02-17T04:10:12.759Z,66.00
2019-02-17T04:12:42.342Z,66.00
2019-02-17T04:15:12.232Z,66.10
2019-02-17T04:17:41.905Z,66.80
2019-02-17T04:20:11.629Z,66.70
2019-02-17T04:22:41.197Z,66.30
2019-02-17T04:25:11.074Z,66.30
2019-02-17T04:27:40.625Z,66.10
2019-02-17T04:30:10.321Z,66.20
2019-02-17T04:32:39.877Z,66.40
2019-02-17T04:35:09.540Z,66.20
2019-02-17T04:37:39.160Z,66.30
2019-02-17T04:40:08.898Z,66.60
2019-02-17T04:42:38.482Z,67.00
2019-02-17T04:45:08.470Z,66.90
2019-02-17T04:47:37.970Z,67.30
2019-02-17T04:50:08.152Z,67.60
2019-02-17T04:52:37.745Z,68.00
2019-02-17T04:55:07.716Z,68.00
2019-02-17T04:57:37.323Z,68.10
2019-02-17T05:00:07.394Z,68.40
2019-02-17T05:02:36.998Z,68.60
2019-02-17T05:05:07.163Z,68.30
2019-02-17T05:07:36.742Z,69.20
2019-02-17T05:10:06.482Z,68.90
2019-02-17T05:12:36.068Z,69.20
2019-02-17T05:15:05.713Z,69.30
2019-02-17T05:17:35.276Z,69.60
2019-02-17T05:20:05.220Z,69.80
2019-02-17T05:22:34.889Z,70.10
2019-02-17T05:25:04.483Z,70.50
2019-02-17T05:27:34.120Z,70.40
2019-02-17T05:30:03.732Z,70.20
2019-02-17T05:32:33.383Z,70.20
2019-02-17T05:35:03.217Z,70.80
2019-02-17T05:37:33.077Z,70.10
2019-02-17T05:40:02.723Z,69.90
2019-02-17T05:42:32.345Z,69.40
2019-02-17T05:45:02.069Z,69.50
2019-02-17T05:47:31.642Z,69.40
2019-02-17T05:50:01.384Z,69.20
2019-02-17T05:52:30.995Z,69.50
2019-02-17T05:55:01.191Z,69.20
2019-02-17T05:57:30.902Z,69.20
2019-02-17T06:00:00.742Z,68.80
2019-02-17T06:02:30.636Z,68.00
2019-02-17T06:05:00.310Z,68.20
2019-02-17T06:07:29.820Z,67.00
2019-02-17T06:09:59.384Z,66.90
2019-02-17T06:12:28.963Z,65.90
2019-02-17T06:14:58.532Z,65.50
2019-02-17T06:17:29.164Z,65.00
2019-02-17T06:19:58.685Z,65.30
2019-02-17T06:22:28.335Z,64.10
2019-02-17T06:24:57.929Z,63.70
2019-02-17T06:27:27.564Z,63.70
2019-02-17T06:29:57.471Z,63.30
2019-02-17T06:32:27.144Z,62.80
2019-02-17T06:34:57.312Z,62.40
2019-02-17T06:37:26.909Z,62.80
2019-02-17T06:39:56.453Z,62.30
2019-02-17T06:42:26.212Z,62.20
2019-02-17T06:44:55.776Z,62.00
2019-02-17T06:47:29.040Z,60.80
2019-02-17T06:49:58.774Z,60.60
2019-02-17T06:52:28.339Z,60.80
2019-02-17T06:55:15.513Z,61.90
2019-02-17T06:57:45.047Z,62.20
2019-02-17T07:00:27.973Z,62.00
2019-02-17T07:02:57.618Z,61.70
2019-02-17T07:05:38.775Z,62.20
2019-02-17T07:08:09.101Z,61.90
2019-02-17T07:10:38.826Z,62.00
2019-02-17T07:13:10.066Z,62.10
2019-02-17T07:15:40.238Z,62.00
2019-02-17T07:18:10.842Z,62.40
2019-02-17T07:20:40.428Z,61.50
2019-02-17T07:23:11.228Z,59.00
2019-02-17T07:25:40.796Z,56.80
2019-02-17T07:28:11.167Z,54.70
2019-02-17T07:30:40.879Z,53.10
2019-02-17T07:33:11.400Z,51.50
2019-02-17T07:35:41.111Z,49.30
2019-02-17T07:38:11.722Z,46.50
2019-02-17T07:40:41.373Z,43.10
2019-02-17T07:43:11.899Z,40.10
2019-02-17T07:45:41.579Z,37.50
2019-02-17T07:48:12.112Z,35.90
2019-02-17T07:50:41.835Z,33.80
2019-02-17T07:53:12.191Z,32.40
2019-02-17T07:55:42.060Z,31.40
2019-02-17T07:58:12.411Z,30.80
2019-02-17T08:00:42.432Z,31.30
2019-02-17T08:03:12.863Z,32.10
2019-02-17T08:05:43.040Z,32.80
2019-02-17T08:08:12.656Z,32.00
2019-02-17T08:10:42.182Z,30.00
2019-02-17T08:13:12.506Z,29.30
2019-02-17T08:15:43.194Z,29.30
2019-02-17T08:18:13.547Z,29.70
2019-02-17T08:20:44.016Z,29.10
2019-02-17T08:23:15.231Z,28.20
2019-02-17T08:25:45.062Z,27.20
2019-02-17T08:28:14.677Z,27.30
2019-02-17T08:30:44.335Z,28.10
2019-02-17T08:33:14.026Z,28.50
2019-02-17T08:35:43.601Z,28.60
2019-02-17T08:38:13.908Z,29.10
2019-02-17T08:40:43.738Z,28.50
2019-02-17T08:43:13.996Z,29.30
2019-02-17T08:45:43.638Z,28.80
2019-02-17T08:48:14.078Z,28.40
2019-02-17T08:50:43.849Z,27.10
2019-02-17T08:53:13.511Z,26.20
2019-02-17T08:55:43.075Z,25.70
2019-02-17T08:58:13.580Z,25.40
2019-02-17T09:00:43.358Z,25.10
2019-02-17T09:03:13.788Z,24.80
2019-02-17T09:05:44.450Z,24.70
2019-02-17T09:08:15.920Z,24.70
2019-02-17T09:10:45.518Z,24.70
2019-02-17T09:13:17.983Z,25.00
2019-02-17T09:15:47.251Z,25.00
2019-02-17T09:18:17.578Z,25.20
2019-02-17T09:20:47.286Z,25.20
2019-02-17T09:23:16.896Z,25.30
2019-02-17T09:25:46.490Z,24.90
2019-02-17T09:28:16.831Z,24.50
2019-02-17T09:30:46.584Z,23.80
2019-02-17T09:33:16.593Z,23.70
2019-02-17T09:35:46.306Z,23.30
2019-02-17T09:38:17.221Z,22.90
2019-02-17T09:40:48.124Z,22.90
2019-02-17T09:43:18.809Z,22.20
2019-02-17T09:45:48.831Z,22.00
2019-02-17T09:48:19.412Z,21.40
2019-02-17T09:50:49.329Z,21.60
2019-02-17T09:53:19.755Z,20.70
2019-02-17T09:55:49.453Z,20.20
2019-02-17T09:58:19.795Z,20.80
2019-02-17T10:00:49.489Z,19.50
2019-02-17T10:03:19.173Z,19.40
2019-02-17T10:05:49.338Z,19.60
2019-02-17T10:08:19.053Z,19.70
2019-02-17T10:10:48.798Z,19.50
2019-02-17T10:13:18.617Z,20.10
2019-02-17T10:15:48.620Z,20.30
2019-02-17T10:18:19.020Z,20.30
2019-02-17T10:20:48.680Z,20.70
2019-02-17T10:23:19.230Z,20.70
2019-02-17T10:25:49.124Z,20.50
2019-02-17T10:28:19.467Z,19.90
2019-02-17T10:30:49.062Z,19.90
2019-02-17T10:33:18.916Z,20.10
2019-02-17T10:35:49.230Z,20.10
2019-02-17T10:38:19.651Z,20.50
2019-02-17T10:40:50.047Z,19.60
2019-02-17T10:43:20.443Z,19.70
2019-02-17T10:45:50.052Z,19.70
2019-02-17T10:48:19.664Z,18.60
2019-02-17T10:50:49.440Z,18.60
2019-02-17T10:53:19.865Z,18.50
2019-02-17T10:55:51.109Z,17.90
2019-02-17T10:58:20.905Z,16.80
2019-02-17T11:00:50.642Z,16.40
2019-02-17T11:03:20.919Z,16.20
2019-02-17T11:05:50.815Z,16.80
2019-02-17T11:08:21.155Z,16.90
2019-02-17T11:10:50.890Z,16.00
2019-02-17T11:13:21.125Z,15.10
2019-02-17T11:15:51.148Z,15.00
2019-02-17T11:18:21.570Z,15.30
2019-02-17T11:20:51.289Z,14.50
2019-02-17T11:23:21.674Z,14.70
2019-02-17T11:25:51.323Z,15.00
2019-02-17T11:28:20.978Z,14.30
2019-02-17T11:30:50.710Z,14.20
2019-02-17T11:33:21.139Z,14.50
2019-02-17T11:35:51.185Z,14.20
2019-02-17T11:38:21.920Z,14.50
2019-02-17T11:40:51.511Z,15.40
2019-02-17T11:43:21.163Z,16.00
2019-02-17T11:45:50.732Z,16.00
2019-02-17T11:48:21.165Z,16.90
2019-02-17T11:50:50.938Z,17.70
2019-02-17T11:53:21.334Z,18.10
2019-02-17T11:55:51.122Z,18.30
2019-02-17T11:58:21.518Z,19.40
2019-02-17T12:00:51.412Z,19.30
2019-02-17T12:03:21.303Z,19.80
2019-02-17T12:05:51.088Z,20.50
2019-02-17T12:08:21.498Z,20.20
2019-02-17T12:10:51.117Z,21.10
2019-02-17T12:13:21.532Z,21.00
2019-02-17T12:15:51.495Z,21.60
2019-02-17T12:18:21.778Z,22.00
2019-02-17T12:21:28.554Z,21.50
2019-02-17T12:24:31.892Z,22.20
2019-02-17T12:27:23.513Z,21.80
2019-02-17T12:29:57.044Z,21.30
2019-02-17T12:32:29.939Z,20.80
2019-02-17T12:34:59.632Z,21.80
2019-02-17T12:37:29.390Z,22.10
2019-02-17T12:39:59.051Z,22.40
2019-02-17T12:42:29.149Z,22.40
2019-02-17T12:44:58.782Z,22.40
2019-02-17T12:47:28.803Z,21.90
2019-02-17T12:49:58.646Z,21.70
2019-02-17T12:52:29.451Z,21.60
2019-02-17T12:54:59.259Z,21.30
2019-02-17T12:57:29.038Z,21.70
2019-02-17T12:59:58.679Z,21.80
2019-02-17T13:02:28.281Z,21.90
2019-02-17T13:04:58.757Z,22.00
2019-02-17T13:07:28.882Z,22.10
2019-02-17T13:09:58.479Z,21.90
2019-02-17T13:12:28.251Z,21.90
2019-02-17T13:14:57.961Z,22.10
2019-02-17T13:17:27.721Z,21.90
2019-02-17T13:19:57.395Z,22.00
2019-02-17T13:22:27.239Z,22.10
2019-02-17T13:24:56.853Z,21.80
2019-02-17T13:27:32.263Z,22.20
2019-02-17T13:30:01.907Z,22.40
2019-02-17T13:32:31.669Z,22.40
2019-02-17T13:35:01.666Z,22.30
2019-02-17T13:40:08.207Z,21.70
2019-02-17T13:42:38.076Z,21.80
2019-02-17T13:45:09.994Z,21.00
2019-02-17T13:47:39.735Z,21.20
2019-02-17T13:50:11.413Z,21.30
2019-02-17T13:52:41.871Z,20.70
2019-02-17T13:55:11.697Z,21.20
2019-02-17T13:57:41.374Z,21.10
2019-02-17T14:00:13.455Z,20.90
2019-02-17T14:02:43.247Z,21.20
2019-02-17T14:05:13.681Z,21.00
2019-02-17T14:07:43.809Z,21.30
2019-02-17T14:10:14.343Z,22.20
2019-02-17T14:12:43.843Z,22.30
2019-02-17T14:15:14.587Z,22.00
2019-02-17T14:17:44.295Z,22.30
2019-02-17T14:20:14.152Z,23.90
2019-02-17T14:22:44.705Z,25.60
2019-02-17T14:25:15.142Z,25.90
2019-02-17T14:27:44.943Z,25.10
2019-02-17T14:30:15.091Z,25.10
2019-02-17T14:32:45.330Z,26.60
2019-02-17T14:35:15.045Z,26.60
2019-02-17T14:37:45.082Z,26.40
2019-02-17T14:40:14.845Z,26.50
2019-02-17T14:42:44.687Z,26.30
2019-02-17T14:45:14.527Z,26.20
2019-02-17T14:47:44.744Z,26.00
2019-02-17T14:50:14.414Z,26.10
2019-02-17T14:52:44.316Z,26.20
2019-02-17T14:55:14.606Z,26.00
2019-02-17T14:57:44.273Z,26.30
2019-02-17T15:00:13.897Z,25.90
2019-02-17T15:02:44.208Z,26.40
2019-02-17T15:05:15.405Z,26.20
2019-02-17T15:07:45.139Z,26.20
2019-02-17T15:10:14.878Z,26.50
2019-02-17T15:12:44.485Z,26.40
2019-02-17T15:15:14.379Z,26.70
2019-02-17T15:17:44.204Z,27.00
2019-02-17T15:20:15.121Z,26.40
2019-02-17T15:22:45.563Z,26.10
2019-02-17T15:25:15.630Z,26.40
2019-02-17T15:27:45.376Z,26.40
2019-02-17T15:30:15.188Z,26.20
2019-02-17T15:32:46.565Z,26.20
2019-02-17T15:35:16.300Z,26.30
2019-02-17T15:37:46.014Z,26.40
2019-02-17T15:40:15.789Z,25.30
2019-02-17T15:42:45.375Z,24.70
2019-02-17T15:45:15.123Z,24.50
2019-02-17T15:47:47.459Z,24.70
2019-02-17T15:50:17.198Z,25.00
2019-02-17T15:52:47.312Z,24.80
2019-02-17T15:55:17.399Z,24.70
2019-02-17T15:57:48.981Z,24.40
2019-02-17T16:00:18.432Z,25.00
2019-02-17T16:02:48.055Z,24.50
2019-02-17T16:05:17.805Z,24.80
2019-02-17T16:07:47.447Z,24.70
2019-02-17T16:10:17.330Z,25.30
2019-02-17T16:12:47.235Z,25.20
2019-02-17T16:15:17.271Z,25.50
2019-02-17T16:17:47.265Z,25.60
2019-02-17T16:20:17.051Z,25.60
2019-02-17T16:22:46.790Z,26.10
2019-02-17T16:25:18.212Z,26.30
2019-02-17T16:27:48.688Z,26.50
2019-02-17T16:30:18.547Z,26.70
2019-02-17T16:32:48.512Z,26.90
2019-02-17T16:35:19.038Z,27.20
2019-02-17T16:37:48.891Z,27.40
2019-02-17T16:40:18.576Z,27.50
2019-02-17T16:42:48.276Z,27.60
2019-02-17T16:45:18.261Z,27.80
2019-02-17T16:47:48.700Z,28.00
2019-02-17T16:50:19.629Z,28.00
2019-02-17T16:52:49.566Z,28.30
2019-02-17T16:55:19.483Z,28.40
2019-02-17T16:57:49.696Z,28.30
2019-02-17T17:00:25.103Z,28.80
2019-02-17T17:02:55.041Z,28.50
2019-02-17T17:05:25.085Z,28.80
2019-02-17T17:07:56.114Z,28.80
2019-02-17T17:10:25.934Z,28.90
2019-02-17T17:12:55.906Z,29.00
2019-02-17T17:15:26.174Z,29.30
2019-02-17T17:17:55.885Z,30.10
2019-02-17T17:20:25.808Z,29.90
2019-02-17T17:22:55.804Z,30.10
2019-02-17T17:25:25.670Z,30.40
2019-02-17T17:27:55.512Z,30.90
2019-02-17T17:30:26.535Z,31.00
2019-02-17T17:32:56.998Z,31.40
2019-02-17T17:35:27.609Z,31.50
2019-02-17T17:37:57.651Z,32.20
2019-02-17T17:40:28.090Z,32.30
2019-02-17T17:42:58.669Z,32.50
2019-02-17T17:45:29.252Z,32.50
2019-02-17T17:47:59.669Z,32.60
2019-02-17T17:50:30.056Z,33.00
2019-02-17T17:53:01.181Z,32.60
2019-02-17T17:55:31.566Z,32.60
2019-02-17T17:58:01.387Z,32.90
2019-02-17T18:00:32.980Z,33.10
2019-02-17T18:03:03.555Z,33.50
2019-02-17T18:05:33.918Z,34.00
2019-02-17T18:08:04.670Z,33.70
2019-02-17T18:10:35.014Z,34.00
2019-02-17T18:13:06.158Z,34.90
2019-02-17T18:15:36.514Z,34.70
2019-02-17T18:18:08.427Z,34.30
2019-02-17T18:20:38.550Z,34.30
2019-02-17T18:23:08.899Z,34.40
2019-02-17T18:25:39.345Z,34.40
2019-02-17T18:28:10.659Z,34.40
2019-02-17T18:30:41.333Z,34.10
2019-02-17T18:33:11.961Z,34.40
2019-02-17T18:35:41.665Z,34.10
2019-02-17T18:38:12.551Z,34.30
2019-02-17T18:40:44.996Z,34.50
2019-02-17T18:43:15.405Z,34.40
2019-02-17T18:45:46.482Z,34.50
2019-02-17T18:48:16.914Z,34.90
2019-02-17T18:50:47.502Z,35.00
2019-02-17T18:53:17.863Z,35.10
2019-02-17T18:55:48.927Z,35.80
2019-02-17T18:58:19.317Z,35.50
2019-02-17T19:00:49.876Z,35.80
2019-02-17T19:03:20.454Z,35.50
2019-02-17T19:05:50.642Z,34.90
2019-02-17T19:08:21.617Z,35.60
2019-02-17T19:10:51.416Z,35.70
2019-02-17T19:13:21.761Z,35.70
2019-02-17T19:15:53.637Z,36.70
2019-02-17T19:18:23.264Z,36.00
2019-02-17T19:20:53.591Z,36.30
2019-02-17T19:23:24.493Z,36.00
2019-02-17T19:25:55.008Z,36.80
2019-02-17T19:28:25.331Z,37.10
2019-02-17T19:30:55.797Z,37.20
2019-02-17T19:33:26.792Z,37.70
2019-02-17T19:35:59.641Z,37.60
2019-02-17T19:38:30.376Z,37.70
2019-02-17T19:41:01.596Z,37.90
2019-02-17T19:43:32.157Z,38.30
2019-02-17T19:46:02.254Z,38.10
2019-02-17T19:48:32.724Z,38.20
2019-02-17T19:51:02.664Z,38.30
2019-02-17T19:53:33.183Z,38.20
2019-02-17T19:56:03.464Z,38.20
2019-02-17T19:58:33.825Z,38.40
2019-02-17T20:01:03.998Z,39.10
2019-02-17T20:04:08.513Z,38.60
2019-02-17T20:06:38.915Z,38.40
2019-02-17T20:09:17.264Z,38.50
2019-02-17T20:11:47.547Z,38.80
2019-02-17T20:14:18.044Z,38.90
2019-02-17T20:16:47.742Z,38.90
2019-02-17T20:19:17.565Z,39.50
2019-02-17T20:21:47.993Z,39.30
2019-02-17T20:24:18.271Z,39.40
2019-02-17T20:26:48.640Z,40.00
2019-02-17T20:29:19.298Z,39.70
2019-02-17T20:31:51.429Z,39.90
2019-02-17T20:34:21.163Z,39.90
2019-02-17T20:36:51.823Z,40.30
2019-02-17T20:39:22.717Z,40.50
2019-02-17T20:41:53.272Z,40.60
2019-02-17T20:44:24.031Z,41.00
2019-02-17T20:46:54.033Z,41.20
2019-02-17T20:49:25.897Z,41.40
2019-02-17T20:51:56.564Z,41.70
2019-02-17T20:54:27.576Z,41.70
2019-02-17T20:56:57.947Z,41.80
2019-02-17T20:59:28.784Z,42.20
2019-02-17T21:01:58.841Z,42.70
2019-02-17T21:04:29.413Z,42.70
2019-02-17T21:06:59.411Z,42.80
2019-02-17T21:09:30.328Z,43.30
2019-02-17T21:12:00.766Z,43.60
2019-02-17T21:14:31.292Z,43.90
2019-02-17T21:17:01.075Z,44.00
2019-02-17T21:19:31.634Z,44.30
2019-02-17T21:22:01.529Z,45.00
2019-02-17T21:24:32.357Z,44.60
2019-02-17T21:27:02.663Z,44.80
2019-02-17T21:29:32.518Z,45.20
2019-02-17T21:32:02.138Z,45.40
2019-02-17T21:34:31.808Z,45.90
2019-02-17T21:37:01.530Z,46.00
2019-02-17T21:39:32.059Z,46.20
2019-02-17T21:42:02.404Z,46.40
2019-02-17T21:44:32.870Z,46.40
2019-02-17T21:47:03.124Z,46.70
2019-02-17T21:49:33.579Z,47.10
2019-02-17T21:52:04.094Z,47.10
2019-02-17T21:54:34.484Z,47.00
2019-02-17T21:57:04.942Z,47.10
2019-02-17T21:59:34.783Z,46.70
2019-02-17T22:02:05.301Z,46.60
2019-02-17T22:04:35.962Z,46.90
2019-02-17T22:07:06.340Z,46.70
2019-02-17T22:09:36.638Z,45.90
2019-02-17T22:12:07.479Z,46.00
2019-02-17T22:14:37.936Z,45.80
2019-02-17T22:17:07.599Z,45.90
2019-02-17T22:19:37.952Z,46.20
2019-02-17T22:22:08.277Z,45.80
2019-02-17T22:24:38.613Z,46.10
2019-02-17T22:27:09.427Z,46.10
2019-02-17T22:29:39.319Z,45.70
2019-02-17T22:32:09.032Z,45.80
2019-02-17T22:34:38.653Z,45.70
2019-02-17T22:37:09.232Z,45.90
2019-02-17T22:39:38.932Z,45.90
2019-02-17T22:42:08.605Z,45.60
2019-02-17T22:44:38.453Z,45.60
2019-02-17T22:47:08.082Z,45.80
2019-02-17T22:49:37.743Z,45.80
2019-02-17T22:52:07.542Z,46.60
2019-02-17T22:54:38.423Z,46.80
2019-02-17T22:57:08.032Z,47.20
2019-02-17T22:59:37.776Z,47.60
2019-02-17T23:02:07.487Z,47.70
2019-02-17T23:07:12.948Z,47.90
2019-02-17T23:09:42.684Z,48.00
2019-02-17T23:12:12.187Z,47.90
2019-02-17T23:14:42.260Z,48.00
2019-02-17T23:17:11.814Z,48.20
2019-02-17T23:19:41.458Z,48.50
2019-02-17T23:22:11.184Z,48.80
2019-02-17T23:24:40.740Z,48.90
2019-02-17T23:27:10.463Z,49.10
2019-02-17T23:29:40.185Z,49.30
2019-02-17T23:32:10.050Z,49.10
2019-02-17T23:34:39.581Z,49.40
2019-02-17T23:37:09.911Z,49.40
2019-02-17T23:39:39.514Z,49.00
2019-02-17T23:42:09.220Z,49.10
2019-02-17T23:44:38.884Z,49.20
2019-02-17T23:47:08.580Z,49.30
2019-02-17T23:49:38.245Z,49.30
2019-02-17T23:52:08.163Z,49.30
2019-02-17T23:54:38.289Z,49.30
2019-02-17T23:57:07.917Z,49.40
2019-02-17T23:59:37.512Z,49.30
